Terminal Aerodrome Forecast
Issued by NWS Bismarck, ND

Home | Current Version | Previous Version | Graphics & Text | Print | Product List | Glossary On
Versions: 1 2 3 4 5 6 7 8 9 10 11 12 13 14 15
000
FTUS43 KBIS 151132
TAFBIS
TAF
KBIS 151132Z 1512/1612 25006KT P6SM SCT080 BKN100 WS020/29030KT
     FM151500 28010KT P6SM SCT080
     FM151800 30016G24KT P6SM SKC
     FM152300 30009KT P6SM SKC
     FM161000 19005KT P6SM SKC WS015/24020KT=

USA.gov is the U.S. government's official web portal to all federal, state and local government web resources and services.